Time;durP1;ratioP1;P1;durP2;ratioP2;P2;SDS_P1;SDS_P2;PMS_P1;PMS_P2;Temp;Humidity;BMP_temperature;BMP_pressure;BME280_temperature;BME280_humidity;BME280_pressure;Samples;Min_cycle;Max_cycle;Signal;HPM_P1;HPM_P2
2024/01/23 00:02:26;;;;;;;2;1.5;;;;;;;;;;;;;
2024/01/23 00:04:50;;;;;;;2.1;1.6;;;;;;;;;;;;;
2024/01/23 00:07:15;;;;;;;2.8;1.6;;;;;;;;;;;;;
2024/01/23 00:09:40;;;;;;;3.9;1.7;;;;;;;;;;;;;
2024/01/23 00:12:07;;;;;;;3.6;1.8;;;;;;;;;;;;;
2024/01/23 00:14:32;;;;;;;3;1.8;;;;;;;;;;;;;
2024/01/23 00:16:56;;;;;;;3.8;1.6;;;;;;;;;;;;;
2024/01/23 00:19:21;;;;;;;2.6;1.5;;;;;;;;;;;;;
2024/01/23 00:21:46;;;;;;;4.4;1.6;;;;;;;;;;;;;
2024/01/23 00:24:13;;;;;;;2.3;1.6;;;;;;;;;;;;;
2024/01/23 00:26:38;;;;;;;2.5;1.5;;;;;;;;;;;;;
2024/01/23 00:29:05;;;;;;;1.8;1.4;;;;;;;;;;;;;
2024/01/23 00:31:29;;;;;;;2.3;1.7;;;;;;;;;;;;;
2024/01/23 00:33:54;;;;;;;1.4;1.3;;;;;;;;;;;;;
2024/01/23 00:36:19;;;;;;;2.9;1.4;;;;;;;;;;;;;
2024/01/23 00:38:44;;;;;;;1.7;1.3;;;;;;;;;;;;;
2024/01/23 00:41:10;;;;;;;1.7;1.1;;;;;;;;;;;;;
2024/01/23 00:43:35;;;;;;;1.1;0.9;;;;;;;;;;;;;
2024/01/23 00:46:01;;;;;;;1.6;1;;;;;;;;;;;;;
2024/01/23 00:48:26;;;;;;;1.9;1.2;;;;;;;;;;;;;
2024/01/23 00:50:51;;;;;;;2.6;1.2;;;;;;;;;;;;;
2024/01/23 00:53:16;;;;;;;1.3;1;;;;;;;;;;;;;
2024/01/23 00:55:42;;;;;;;1.6;1.1;;;;;;;;;;;;;
2024/01/23 00:58:07;;;;;;;3.1;1;;;;;;;;;;;;;
2024/01/23 01:00:44;;;;;;;1.8;1.1;;;;;;;;;;;;;
2024/01/23 01:03:12;;;;;;;1.1;1;;;;;;;;;;;;;
2024/01/23 01:05:41;;;;;;;2.4;1.3;;;;;;;;;;;;;
2024/01/23 01:08:10;;;;;;;1.5;1.1;;;;;;;;;;;;;
2024/01/23 01:10:39;;;;;;;1.6;1.3;;;;;;;;;;;;;
2024/01/23 01:13:11;;;;;;;1.7;1.4;;;;;;;;;;;;;
2024/01/23 01:16:10;;;;;;;2.1;1.5;;;;;;;;;;;;;
2024/01/23 01:18:42;;;;;;;2.1;1.6;;;;;;;;;;;;;
2024/01/23 01:21:15;;;;;;;2.2;1.6;;;;;;;;;;;;;
2024/01/23 01:23:40;;;;;;;2.8;1.6;;;;;;;;;;;;;
2024/01/23 01:26:05;;;;;;;2.4;1.5;;;;;;;;;;;;;
2024/01/23 01:28:30;;;;;;;2.1;1.5;;;;;;;;;;;;;
2024/01/23 01:30:55;;;;;;;3.5;1.6;;;;;;;;;;;;;
2024/01/23 01:33:21;;;;;;;1.5;1.3;;;;;;;;;;;;;
2024/01/23 01:35:45;;;;;;;3.2;1.4;;;;;;;;;;;;;
2024/01/23 01:38:10;;;;;;;1.3;1;;;;;;;;;;;;;
2024/01/23 01:40:36;;;;;;;1.2;0.8;;;;;;;;;;;;;
2024/01/23 01:43:00;;;;;;;2;0.8;;;;;;;;;;;;;
2024/01/23 01:45:26;;;;;;;1.2;0.9;;;;;;;;;;;;;
2024/01/23 01:47:51;;;;;;;3.3;1.1;;;;;;;;;;;;;
2024/01/23 01:50:16;;;;;;;1.8;1;;;;;;;;;;;;;
2024/01/23 01:52:41;;;;;;;1.5;1.4;;;;;;;;;;;;;
2024/01/23 01:55:06;;;;;;;1.6;1.1;;;;;;;;;;;;;
2024/01/23 01:57:33;;;;;;;2;1;;;;;;;;;;;;;
2024/01/23 01:59:56;;;;;;;1.7;1.1;;;;;;;;;;;;;
2024/01/23 02:02:21;;;;;;;3;1.1;;;;;;;;;;;;;
2024/01/23 02:04:47;;;;;;;1.4;1.1;;;;;;;;;;;;;
2024/01/23 02:07:11;;;;;;;1.6;1.1;;;;;;;;;;;;;
2024/01/23 02:09:36;;;;;;;2;1.1;;;;;;;;;;;;;
2024/01/23 02:12:04;;;;;;;1.5;1.2;;;;;;;;;;;;;
2024/01/23 02:14:27;;;;;;;2.2;1.2;;;;;;;;;;;;;
2024/01/23 02:16:52;;;;;;;2.3;1.1;;;;;;;;;;;;;
2024/01/23 02:19:17;;;;;;;1.4;1.2;;;;;;;;;;;;;
2024/01/23 02:21:42;;;;;;;1.5;1;;;;;;;;;;;;;
2024/01/23 02:24:07;;;;;;;0.6;0.6;;;;;;;;;;;;;
2024/01/23 02:26:32;;;;;;;2.9;1.6;;;;;;;;;;;;;
2024/01/23 02:28:57;;;;;;;1.9;1.1;;;;;;;;;;;;;
2024/01/23 02:31:23;;;;;;;1.3;1;;;;;;;;;;;;;
2024/01/23 02:33:48;;;;;;;1.7;0.8;;;;;;;;;;;;;
2024/01/23 02:36:13;;;;;;;2.2;1.2;;;;;;;;;;;;;
2024/01/23 02:38:38;;;;;;;3;1.3;;;;;;;;;;;;;
2024/01/23 02:41:03;;;;;;;1.8;1.1;;;;;;;;;;;;;
2024/01/23 02:43:28;;;;;;;1.1;0.9;;;;;;;;;;;;;
2024/01/23 02:45:53;;;;;;;2;0.9;;;;;;;;;;;;;
2024/01/23 02:48:18;;;;;;;1.4;0.8;;;;;;;;;;;;;
2024/01/23 02:50:43;;;;;;;1.3;0.9;;;;;;;;;;;;;
2024/01/23 02:53:08;;;;;;;0.6;0.6;;;;;;;;;;;;;
2024/01/23 02:55:33;;;;;;;0.9;0.6;;;;;;;;;;;;;
2024/01/23 02:57:59;;;;;;;0.9;0.6;;;;;;;;;;;;;
2024/01/23 03:00:24;;;;;;;0.7;0.7;;;;;;;;;;;;;
2024/01/23 03:02:49;;;;;;;0.7;0.5;;;;;;;;;;;;;
2024/01/23 03:05:14;;;;;;;0.6;0.4;;;;;;;;;;;;;
2024/01/23 03:07:39;;;;;;;0.7;0.7;;;;;;;;;;;;;
2024/01/23 03:10:04;;;;;;;1.3;1.2;;;;;;;;;;;;;
2024/01/23 03:12:30;;;;;;;1.3;0.8;;;;;;;;;;;;;
2024/01/23 03:14:54;;;;;;;0.5;0.5;;;;;;;;;;;;;
2024/01/23 03:17:20;;;;;;;0.5;0.5;;;;;;;;;;;;;
2024/01/23 03:19:45;;;;;;;1.2;0.7;;;;;;;;;;;;;
2024/01/23 03:22:10;;;;;;;1.2;0.7;;;;;;;;;;;;;
2024/01/23 03:24:35;;;;;;;1.1;0.8;;;;;;;;;;;;;
2024/01/23 03:27:00;;;;;;;1;0.7;;;;;;;;;;;;;
2024/01/23 03:29:25;;;;;;;2.6;0.8;;;;;;;;;;;;;
2024/01/23 03:31:51;;;;;;;1.8;1;;;;;;;;;;;;;
2024/01/23 03:34:15;;;;;;;2.6;1.8;;;;;;;;;;;;;
2024/01/23 03:36:41;;;;;;;1.7;1.6;;;;;;;;;;;;;
2024/01/23 03:39:06;;;;;;;1.4;0.9;;;;;;;;;;;;;
2024/01/23 03:41:31;;;;;;;0.7;0.7;;;;;;;;;;;;;
2024/01/23 03:43:56;;;;;;;1.9;1.5;;;;;;;;;;;;;
2024/01/23 03:46:21;;;;;;;1.6;1.4;;;;;;;;;;;;;
2024/01/23 03:48:46;;;;;;;0.8;0.8;;;;;;;;;;;;;
2024/01/23 03:51:11;;;;;;;1.4;0.9;;;;;;;;;;;;;
2024/01/23 03:53:36;;;;;;;0.9;0.9;;;;;;;;;;;;;
2024/01/23 03:56:01;;;;;;;1.2;0.8;;;;;;;;;;;;;
2024/01/23 03:58:26;;;;;;;1.1;0.7;;;;;;;;;;;;;
2024/01/23 04:02:42;;;;;;;1.7;1.6;;;;;;;4.03;100;944.3253;;;;
2024/01/23 04:05:07;;;;;;;1;0.8;;;;;;;4.08;100;944.5153;;;;
2024/01/23 04:07:32;;;;;;;1.3;1.2;;;;;;;4.04;100;944.4843;;;;
2024/01/23 04:09:57;;;;;;;1;1;;;;;;;4.09;100;944.5628;;;;
2024/01/23 04:12:22;;;;;;;0.8;0.8;;;;;;;4.12;100;944.505;;;;
2024/01/23 04:14:48;;;;;;;0.7;0.6;;;;;;;4.04;100;944.5923;;;;
2024/01/23 04:17:13;;;;;;;1.1;0.6;;;;;;;4.01;100;944.6082;;;;
2024/01/23 04:19:38;;;;;;;1.3;0.8;;;;;;;4.04;100;944.4717;;;;
2024/01/23 04:22:03;;;;;;;1;0.9;;;;;;;4.01;100;944.5656;;;;
2024/01/23 04:24:28;;;;;;;1.5;0.9;;;;;;;3.97;100;944.6511;;;;
2024/01/23 04:26:53;;;;;;;0.9;0.8;;;;;;;3.97;100;944.7717;;;;
2024/01/23 04:29:18;;;;;;;1.1;0.9;;;;;;;3.95;100;944.8535;;;;
2024/01/23 04:31:43;;;;;;;1.4;0.8;;;;;;;3.97;100;944.9034;;;;
2024/01/23 04:34:08;;;;;;;3;1.4;;;;;;;4.11;100;944.8563;;;;
2024/01/23 04:36:33;;;;;;;4.8;1.6;;;;;;;4.03;100;944.8155;;;;
2024/01/23 04:38:58;;;;;;;2.7;1.7;;;;;;;4.01;100;944.8886;;;;
2024/01/23 04:41:24;;;;;;;2.4;1.8;;;;;;;4.01;100;944.8958;;;;
2024/01/23 04:43:49;;;;;;;2.7;1.7;;;;;;;4.03;100;944.8611;;;;
2024/01/23 04:46:14;;;;;;;4.1;1.6;;;;;;;3.96;100;944.9397;;;;
2024/01/23 04:48:39;;;;;;;4.8;2.7;;;;;;;3.87;100;944.9389;;;;
2024/01/23 04:51:04;;;;;;;3.7;2.1;;;;;;;3.9;100;945.2;;;;
2024/01/23 04:53:32;;;;;;;2.6;1.8;;;;;;;3.88;100;945.2378;;;;
2024/01/23 04:55:54;;;;;;;2;1.4;;;;;;;3.91;100;945.1353;;;;
2024/01/23 04:58:19;;;;;;;2.1;1.7;;;;;;;3.83;100;945.1853;;;;
2024/01/23 05:00:44;;;;;;;2.8;2.2;;;;;;;3.78;100;945.3166;;;;
2024/01/23 05:03:09;;;;;;;4;2.8;;;;;;;3.77;100;945.476;;;;
2024/01/23 05:05:35;;;;;;;4.5;2.7;;;;;;;3.85;100;945.5572;;;;
2024/01/23 05:08:00;;;;;;;5;2.3;;;;;;;3.74;100;945.4203;;;;
2024/01/23 05:10:25;;;;;;;4;2.9;;;;;;;3.79;100;945.4886;;;;
2024/01/23 05:12:53;;;;;;;4.6;2.2;;;;;;;3.72;100;945.6345;;;;
2024/01/23 05:15:15;;;;;;;4.9;2.4;;;;;;;3.74;100;945.8762;;;;
2024/01/23 05:17:40;;;;;;;3.7;2.3;;;;;;;3.75;100;945.8427;;;;
2024/01/23 05:20:06;;;;;;;4.5;2.2;;;;;;;3.65;100;945.9833;;;;
2024/01/23 05:22:31;;;;;;;1.4;1;;;;;;;3.61;100;946.1892;;;;
2024/01/23 05:24:56;;;;;;;9.2;6.8;;;;;;;3.62;100;946.3077;;;;
2024/01/23 05:27:21;;;;;;;13.7;8.8;;;;;;;3.68;100;946.4529;;;;
2024/01/23 05:29:46;;;;;;;11.7;7.8;;;;;;;3.62;100;946.421;;;;
2024/01/23 05:32:11;;;;;;;10.3;5.6;;;;;;;3.59;100;946.3915;;;;
2024/01/23 05:34:36;;;;;;;7.7;4.3;;;;;;;3.62;100;946.4249;;;;
2024/01/23 05:37:02;;;;;;;6.5;4.3;;;;;;;3.66;100;946.3969;;;;
2024/01/23 05:39:26;;;;;;;8;6.1;;;;;;;3.69;100;946.5718;;;;
2024/01/23 05:41:52;;;;;;;3.4;3;;;;;;;3.78;100;946.4853;;;;
2024/01/23 05:44:17;;;;;;;2.5;1.7;;;;;;;3.98;99.89551;946.3613;;;;
2024/01/23 05:46:42;;;;;;;3.4;2.8;;;;;;;3.98;99.89551;946.5636;;;;
2024/01/23 05:49:07;;;;;;;4.3;3;;;;;;;3.87;100;946.4436;;;;
2024/01/23 05:51:32;;;;;;;2.8;2.6;;;;;;;3.96;99.75684;946.3133;;;;
2024/01/23 05:53:57;;;;;;;5.5;2.2;;;;;;;4.02;99.60254;946.4573;;;;
2024/01/23 05:56:22;;;;;;;2.7;1.3;;;;;;;3.91;98.34082;946.6147;;;;
2024/01/23 05:58:48;;;;;;;1.1;1;;;;;;;4.21;95.84473;946.6067;;;;
2024/01/23 06:01:13;;;;;;;3.6;2.2;;;;;;;4.15;96.50488;946.6281;;;;
2024/01/23 06:03:39;;;;;;;5.2;2.5;;;;;;;4.07;96.45313;946.566;;;;
2024/01/23 06:06:03;;;;;;;1.9;0.9;;;;;;;4.44;90.61816;946.628;;;;
2024/01/23 06:08:28;;;;;;;3.2;2.9;;;;;;;4.43;93.14648;946.6934;;;;
2024/01/23 06:10:53;;;;;;;2.2;1.6;;;;;;;4.3;94.93066;946.775;;;;
2024/01/23 06:13:19;;;;;;;1.9;1.4;;;;;;;4.22;95.83496;946.8373;;;;
2024/01/23 06:15:44;;;;;;;2.6;1.4;;;;;;;4.24;94.39941;946.9953;;;;
2024/01/23 06:18:10;;;;;;;3.5;1.4;;;;;;;4.15;95.29004;946.9583;;;;
2024/01/23 06:20:34;;;;;;;2.6;1.5;;;;;;;4.01;96.98047;946.9326;;;;
2024/01/23 06:22:59;;;;;;;2.3;1.7;;;;;;;4;97.61914;947.0045;;;;
2024/01/23 06:25:24;;;;;;;5.3;1.8;;;;;;;4.02;97.52051;946.9268;;;;
2024/01/23 06:27:50;;;;;;;2.3;1.3;;;;;;;3.95;97.64063;947.0106;;;;
2024/01/23 06:30:15;;;;;;;2.9;1.6;;;;;;;3.99;97.68262;947.0229;;;;
2024/01/23 06:32:40;;;;;;;2.6;1.8;;;;;;;4.02;97.23926;947.0119;;;;
2024/01/23 06:35:05;;;;;;;2.8;1.1;;;;;;;4;97.6416;947.3402;;;;
2024/01/23 06:37:30;;;;;;;4.2;2.7;;;;;;;3.99;97.48047;947.5147;;;;
2024/01/23 06:39:55;;;;;;;3.4;2.4;;;;;;;3.95;97.41602;947.4919;;;;
2024/01/23 06:42:21;;;;;;;4.7;1.6;;;;;;;4.05;95.83008;947.5429;;;;
2024/01/23 06:44:45;;;;;;;4;1.5;;;;;;;4.18;95.23047;947.577;;;;
2024/01/23 06:47:10;;;;;;;2.3;1.1;;;;;;;4.23;94.18164;947.6464;;;;
2024/01/23 06:49:35;;;;;;;2.3;1.6;;;;;;;4.32;92.89746;947.8131;;;;
2024/01/23 06:52:01;;;;;;;3.1;1.2;;;;;;;4.23;93.39551;947.8617;;;;
2024/01/23 06:54:26;;;;;;;8.3;1.7;;;;;;;4.11;94.61816;947.8912;;;;
2024/01/23 06:56:51;;;;;;;3.3;1.5;;;;;;;4.15;94.40137;948.0506;;;;
2024/01/23 06:59:16;;;;;;;2.5;1.3;;;;;;;4.13;94.4873;948.1449;;;;
2024/01/23 07:01:41;;;;;;;1.9;1.1;;;;;;;4.1;94.64844;948.2169;;;;
2024/01/23 07:04:07;;;;;;;1.8;0.8;;;;;;;4.08;94.83789;948.038;;;;
2024/01/23 07:06:31;;;;;;;3.2;0.7;;;;;;;3.97;95.66602;947.9777;;;;
2024/01/23 07:08:57;;;;;;;1.4;0.9;;;;;;;3.89;96.42578;947.8982;;;;
2024/01/23 07:11:22;;;;;;;6.1;2.1;;;;;;;3.87;96.57715;947.8869;;;;
2024/01/23 07:13:47;;;;;;;3.4;1.5;;;;;;;3.88;96.49121;947.8945;;;;
2024/01/23 07:16:12;;;;;;;2.7;1.3;;;;;;;3.88;96.58105;947.9078;;;;
2024/01/23 07:18:37;;;;;;;3.1;1.4;;;;;;;3.85;96.80859;947.8663;;;;
2024/01/23 07:21:02;;;;;;;4.7;1.9;;;;;;;3.8;96.86426;947.9294;;;;
2024/01/23 07:23:27;;;;;;;5.7;3;;;;;;;3.81;96.47266;948.0446;;;;
2024/01/23 07:25:53;;;;;;;6;2.6;;;;;;;3.81;96.49512;947.9941;;;;
2024/01/23 07:28:17;;;;;;;5.1;2.6;;;;;;;3.87;96.65527;948.0545;;;;
2024/01/23 07:30:43;;;;;;;7.1;2.6;;;;;;;3.8;96.70605;948.1089;;;;
2024/01/23 07:33:09;;;;;;;11.1;5.1;;;;;;;3.73;97.43164;948.0092;;;;
2024/01/23 07:35:35;;;;;;;14.8;5.3;;;;;;;3.7;97.40527;947.9277;;;;
2024/01/23 07:37:58;;;;;;;9.8;4.5;;;;;;;3.86;97.19336;948.0508;;;;
2024/01/23 07:40:24;;;;;;;6.9;2.4;;;;;;;3.77;97.16113;948.1517;;;;
2024/01/23 07:42:48;;;;;;;10.1;4.5;;;;;;;3.69;97.88379;948.2192;;;;
2024/01/23 07:45:13;;;;;;;14.6;7.1;;;;;;;3.79;98.27832;948.3589;;;;
2024/01/23 07:47:38;;;;;;;7.9;3.9;;;;;;;3.88;97.80664;948.5112;;;;
2024/01/23 07:50:07;;;;;;;4.3;2.9;;;;;;;3.79;97.85254;948.4467;;;;
2024/01/23 07:52:31;;;;;;;3.8;1.7;;;;;;;3.84;97.23145;948.6052;;;;
2024/01/23 07:54:54;;;;;;;5.6;2.7;;;;;;;3.9;97.49316;948.709;;;;
2024/01/23 07:57:19;;;;;;;6.3;2.8;;;;;;;3.82;97.3291;948.9714;;;;
2024/01/23 07:59:44;;;;;;;7.6;3.1;;;;;;;3.76;98.18164;948.9758;;;;
2024/01/23 08:02:09;;;;;;;4.5;2.7;;;;;;;3.71;99.11328;948.9861;;;;
2024/01/23 08:04:34;;;;;;;5.7;3.3;;;;;;;3.68;99.5791;948.9228;;;;
2024/01/23 08:07:00;;;;;;;5.7;2.1;;;;;;;3.72;99.24121;949.033;;;;
2024/01/23 08:09:25;;;;;;;5.1;2.3;;;;;;;3.71;99.02344;948.9269;;;;
2024/01/23 08:11:50;;;;;;;2.6;1.6;;;;;;;3.66;99.58398;948.9589;;;;
2024/01/23 08:14:15;;;;;;;5.8;2;;;;;;;3.65;99.86426;949.1902;;;;
2024/01/23 08:16:40;;;;;;;6.7;2.1;;;;;;;3.77;99.30762;949.1228;;;;
2024/01/23 08:19:05;;;;;;;8.3;4.1;;;;;;;3.83;98.94043;949.0089;;;;
2024/01/23 08:21:30;;;;;;;8.2;4.5;;;;;;;3.74;98.78418;949.0995;;;;
2024/01/23 08:23:56;;;;;;;15;7.7;;;;;;;3.71;98.6748;949.0639;;;;
2024/01/23 08:26:21;;;;;;;12.6;6.8;;;;;;;3.75;98.29395;949.1237;;;;
2024/01/23 08:28:46;;;;;;;10.6;5.3;;;;;;;3.79;98.25586;949.3477;;;;
2024/01/23 08:31:11;;;;;;;6.6;3.8;;;;;;;3.81;98.12695;949.3635;;;;
2024/01/23 08:33:38;;;;;;;4.5;1.8;;;;;;;3.81;97.82129;949.3122;;;;
2024/01/23 08:36:03;;;;;;;2.8;1;;;;;;;3.84;97.15332;949.471;;;;
2024/01/23 08:38:27;;;;;;;1.6;0.9;;;;;;;3.78;97.36523;949.4892;;;;
2024/01/23 08:40:52;;;;;;;3.2;1.4;;;;;;;3.79;97.10938;949.4746;;;;
2024/01/23 08:43:17;;;;;;;4.3;1.4;;;;;;;3.77;97.08496;949.454;;;;
2024/01/23 08:45:42;;;;;;;5.7;2.4;;;;;;;3.81;97.61914;949.5482;;;;
2024/01/23 08:48:08;;;;;;;8.1;5.2;;;;;;;3.84;97.99609;949.5914;;;;
2024/01/23 08:50:33;;;;;;;8.2;5.3;;;;;;;3.83;98.32031;949.4995;;;;
2024/01/23 08:52:58;;;;;;;9;5.7;;;;;;;3.82;98.54297;949.4645;;;;
2024/01/23 08:55:23;;;;;;;9.8;6.3;;;;;;;4.06;98.07031;949.449;;;;
2024/01/23 08:57:48;;;;;;;10.5;6;;;;;;;3.98;98.44531;949.5248;;;;
2024/01/23 09:00:13;;;;;;;14.9;7.4;;;;;;;3.96;98.86816;949.484;;;;
2024/01/23 09:02:46;;;;;;;15.6;6.9;;;;;;;3.96;98.8457;949.454;;;;
2024/01/23 09:05:08;;;;;;;13.2;8.3;;;;;;;4.02;98.83594;949.4901;;;;
2024/01/23 09:07:33;;;;;;;13;7.7;;;;;;;3.99;99.20117;949.5382;;;;
2024/01/23 09:09:58;;;;;;;11;5.8;;;;;;;4.08;99.3252;949.3178;;;;
2024/01/23 09:12:25;;;;;;;10.1;6.1;;;;;;;4.15;99.1709;949.3118;;;;
2024/01/23 09:14:49;;;;;;;13.2;6.5;;;;;;;4.21;99.27344;949.3513;;;;
2024/01/23 09:17:14;;;;;;;14.2;7.6;;;;;;;4.29;99.11523;949.3317;;;;
2024/01/23 09:19:39;;;;;;;12.2;6.8;;;;;;;4.33;98.77246;949.5158;;;;
2024/01/23 09:22:04;;;;;;;13.8;6;;;;;;;4.3;99.12598;949.4353;;;;
2024/01/23 09:24:29;;;;;;;14;6.1;;;;;;;4.44;99.01563;949.5762;;;;
2024/01/23 09:26:59;;;;;;;12.8;6.5;;;;;;;4.51;98.58887;949.5544;;;;
2024/01/23 09:29:19;;;;;;;10.1;6.4;;;;;;;5.3;100;949.6248;;;;
2024/01/23 09:31:44;;;;;;;9.4;5.8;;;;;;;5.93;97.79102;949.4808;;;;
2024/01/23 09:34:09;;;;;;;9.6;5.2;;;;;;;6.24;93.34863;949.5992;;;;
2024/01/23 09:36:34;;;;;;;10.9;4.7;;;;;;;6.2;90.88867;949.6019;;;;
2024/01/23 09:39:00;;;;;;;6.4;3.8;;;;;;;5.92;90.24121;949.6429;;;;
2024/01/23 09:41:24;;;;;;;6;3.7;;;;;;;5.71;90.69238;949.59;;;;
2024/01/23 09:43:50;;;;;;;6.7;3.6;;;;;;;5.62;91.11523;949.8095;;;;
2024/01/23 09:46:15;;;;;;;5.6;3.3;;;;;;;5.53;91.66992;949.8483;;;;
2024/01/23 09:48:40;;;;;;;7.7;4.2;;;;;;;5.47;91.7373;949.8756;;;;
2024/01/23 09:51:05;;;;;;;7.5;4;;;;;;;5.44;91.7207;949.8349;;;;
2024/01/23 09:53:30;;;;;;;6.2;3.5;;;;;;;5.38;92.45117;949.9847;;;;
2024/01/23 09:55:55;;;;;;;6.1;3.6;;;;;;;5.33;93.03906;950.1516;;;;
2024/01/23 09:58:20;;;;;;;6.6;3.9;;;;;;;5.31;93.15723;950.1007;;;;
2024/01/23 10:00:46;;;;;;;12.6;5.8;;;;;;;5.28;93.35449;950.0433;;;;
2024/01/23 10:03:11;;;;;;;8.9;5.4;;;;;;;5.23;93.50098;950.0525;;;;
2024/01/23 10:05:37;;;;;;;9.4;4.8;;;;;;;5.26;93.72266;950.1404;;;;
2024/01/23 10:08:01;;;;;;;7.5;4.2;;;;;;;5.29;93.58203;950.1717;;;;
2024/01/23 10:10:27;;;;;;;7.2;3.9;;;;;;;5.25;93.49512;950.1754;;;;
2024/01/23 10:12:51;;;;;;;6.2;3.9;;;;;;;5.24;94.2041;950.1506;;;;
2024/01/23 10:15:17;;;;;;;6.5;4;;;;;;;5.26;93.67773;950.2874;;;;
2024/01/23 10:17:42;;;;;;;6.4;4.5;;;;;;;5.32;93.83594;950.0775;;;;
2024/01/23 10:20:08;;;;;;;6;3.6;;;;;;;5.3;93.47363;950.2015;;;;
2024/01/23 10:22:32;;;;;;;5.8;3.7;;;;;;;5.26;93.15918;950.1831;;;;
2024/01/23 10:24:57;;;;;;;7;4.7;;;;;;;5.41;93.36133;950.0452;;;;
2024/01/23 10:27:23;;;;;;;8.2;4.4;;;;;;;5.51;93.43945;949.8621;;;;
2024/01/23 10:29:49;;;;;;;6;3.7;;;;;;;5.64;92.68848;949.8906;;;;
2024/01/23 10:32:13;;;;;;;8.1;4.3;;;;;;;5.77;92.27539;949.8861;;;;
2024/01/23 10:34:38;;;;;;;7.1;4.7;;;;;;;5.84;92.02051;949.9938;;;;
2024/01/23 10:37:03;;;;;;;5.7;3.9;;;;;;;5.92;91.24707;949.8596;;;;
2024/01/23 10:39:28;;;;;;;6;2.3;;;;;;;6.04;88.53809;949.8486;;;;
2024/01/23 10:41:53;;;;;;;3.4;1.8;;;;;;;6.02;86.81836;949.8764;;;;
2024/01/23 10:44:18;;;;;;;4.1;1.6;;;;;;;6.02;85.42871;949.9428;;;;
2024/01/23 10:46:44;;;;;;;2.5;1.4;;;;;;;6.03;83.87109;950.0128;;;;
2024/01/23 10:49:08;;;;;;;1.7;1.1;;;;;;;6.02;81.66602;950.033;;;;
2024/01/23 10:51:35;;;;;;;2.8;1.1;;;;;;;5.98;82.25488;950.1403;;;;
2024/01/23 10:54:01;;;;;;;0.8;0.8;;;;;;;6.02;81.38184;950.2026;;;;
2024/01/23 10:56:24;;;;;;;1.6;0.9;;;;;;;6.08;81.25879;950.1502;;;;
2024/01/23 10:58:49;;;;;;;1.1;0.9;;;;;;;6.05;81.02539;950.291;;;;
2024/01/23 11:01:14;;;;;;;1.9;0.6;;;;;;;6.14;80.59277;950.3245;;;;
2024/01/23 11:03:39;;;;;;;2;0.8;;;;;;;6.05;81.11621;950.2704;;;;
2024/01/23 11:06:04;;;;;;;2.4;0.8;;;;;;;6.18;82.24902;950.2133;;;;
2024/01/23 11:08:29;;;;;;;2;0.9;;;;;;;6.35;81.625;950.1655;;;;
2024/01/23 11:10:54;;;;;;;0.6;0.6;;;;;;;6.39;81.55469;950.0806;;;;
2024/01/23 11:13:19;;;;;;;1.4;1.2;;;;;;;6.37;81.4834;950.0654;;;;
2024/01/23 11:15:45;;;;;;;1.1;0.8;;;;;;;6.39;80.52637;950.0165;;;;
2024/01/23 11:18:10;;;;;;;2.3;1.1;;;;;;;6.37;79.52637;949.9807;;;;
2024/01/23 11:20:35;;;;;;;1.6;1.5;;;;;;;6.37;80.03516;949.9568;;;;
2024/01/23 11:23:00;;;;;;;2.4;1.7;;;;;;;6.5;79.50684;949.8189;;;;
2024/01/23 11:25:25;;;;;;;1.7;1.6;;;;;;;6.53;79.19531;949.7839;;;;
2024/01/23 11:27:50;;;;;;;1;1;;;;;;;6.67;77.92969;949.665;;;;
2024/01/23 11:30:15;;;;;;;1.3;1.2;;;;;;;6.83;78.20898;949.7512;;;;
2024/01/23 11:32:40;;;;;;;2.1;1.2;;;;;;;7.05;75.53027;949.6752;;;;
2024/01/23 11:35:07;;;;;;;1.5;1.2;;;;;;;6.94;75.75977;949.6055;;;;
2024/01/23 11:37:31;;;;;;;0.9;0.5;;;;;;;6.82;75.19629;949.6567;;;;
2024/01/23 11:39:56;;;;;;;1.5;0.9;;;;;;;6.77;76.13672;949.8228;;;;
2024/01/23 11:42:21;;;;;;;0.8;0.6;;;;;;;6.84;75.25586;949.7683;;;;
2024/01/23 11:46:22;;;;;;;0.6;0.6;;;;;;;6.86;75.41895;949.7352;;;;
2024/01/23 11:48:47;;;;;;;1.7;0.9;;;;;;;6.77;76.2959;949.6541;;;;
2024/01/23 11:51:12;;;;;;;1.7;0.6;;;;;;;6.84;75.50488;949.6495;;;;
2024/01/23 11:53:38;;;;;;;1.9;1.2;;;;;;;6.69;75.11719;949.6613;;;;
2024/01/23 11:56:02;;;;;;;3;1.6;;;;;;;6.81;75.04688;949.6396;;;;
2024/01/23 11:58:27;;;;;;;2.6;1.8;;;;;;;6.86;75.62305;949.478;;;;
2024/01/23 12:00:52;;;;;;;3.6;1.5;;;;;;;6.83;74.98242;949.5581;;;;
2024/01/23 12:03:22;;;;;;;1.6;1.1;;;;;;;6.79;75.54199;949.4969;;;;
2024/01/23 12:05:46;;;;;;;2.1;0.8;;;;;;;6.86;76.07422;949.5396;;;;
2024/01/23 12:08:08;;;;;;;1.7;1.4;;;;;;;6.95;75.5127;949.4221;;;;
2024/01/23 12:10:33;;;;;;;1.2;1.1;;;;;;;6.96;73.98535;949.4509;;;;
2024/01/23 12:12:58;;;;;;;1.7;0.7;;;;;;;6.87;75.24902;949.4648;;;;
2024/01/23 12:15:23;;;;;;;2.1;0.8;;;;;;;6.86;75.58887;949.4073;;;;
2024/01/23 12:17:50;;;;;;;1;0.7;;;;;;;6.66;76.66113;949.4803;;;;
2024/01/23 12:20:14;;;;;;;2.7;0.7;;;;;;;6.57;78.14941;949.4952;;;;
2024/01/23 12:22:38;;;;;;;0.6;0.5;;;;;;;6.58;77.70996;949.5887;;;;
2024/01/23 12:25:04;;;;;;;1.3;1;;;;;;;6.68;76.59668;949.4833;;;;
2024/01/23 12:27:29;;;;;;;55.4;25.7;;;;;;;6.66;77.82617;949.428;;;;
2024/01/23 12:29:54;;;;;;;11.7;6.2;;;;;;;6.65;77.58594;949.516;;;;
2024/01/23 12:32:19;;;;;;;1.5;1;;;;;;;6.82;75.4209;949.5686;;;;
2024/01/23 12:34:45;;;;;;;1.3;0.7;;;;;;;6.88;75.2959;949.2314;;;;
2024/01/23 12:37:09;;;;;;;1.7;0.9;;;;;;;6.76;74.50586;949.3734;;;;
2024/01/23 12:39:35;;;;;;;2;0.9;;;;;;;6.67;74.62598;949.4054;;;;
2024/01/23 12:42:00;;;;;;;19.7;10.6;;;;;;;6.65;75.67676;949.5425;;;;
2024/01/23 12:44:25;;;;;;;2.5;0.9;;;;;;;6.65;75.68457;949.573;;;;
2024/01/23 12:46:50;;;;;;;2.1;0.8;;;;;;;6.66;74.95215;949.5736;;;;
2024/01/23 12:49:15;;;;;;;13.3;7.6;;;;;;;6.62;76.42676;949.605;;;;
2024/01/23 12:51:41;;;;;;;2.7;1.3;;;;;;;6.73;75.54199;949.5355;;;;
2024/01/23 12:54:07;;;;;;;4.8;2.2;;;;;;;6.88;75.30762;949.5917;;;;
2024/01/23 12:56:30;;;;;;;3;1.3;;;;;;;7.13;74.17383;949.6277;;;;
2024/01/23 12:58:56;;;;;;;2.3;1.3;;;;;;;6.95;74.60645;949.5756;;;;
2024/01/23 13:01:20;;;;;;;7.7;4.7;;;;;;;7.05;73.10645;949.4702;;;;
2024/01/23 13:03:46;;;;;;;1.7;1;;;;;;;6.92;72.49414;949.5269;;;;
2024/01/23 13:06:11;;;;;;;23.2;14.5;;;;;;;6.9;72.1416;949.5563;;;;
2024/01/23 13:08:36;;;;;;;9.2;5.4;;;;;;;6.91;71.58887;949.6042;;;;
2024/01/23 13:11:02;;;;;;;9.2;5.7;;;;;;;6.92;71.59961;949.4705;;;;
2024/01/23 13:13:26;;;;;;;4;2.5;;;;;;;7.05;71;949.5531;;;;
2024/01/23 13:15:51;;;;;;;68.3;28;;;;;;;7.03;71.58594;949.5975;;;;
2024/01/23 13:18:16;;;;;;;4.8;2.3;;;;;;;6.98;71.30469;949.5602;;;;
2024/01/23 13:20:41;;;;;;;3.2;1.7;;;;;;;6.98;71.01074;949.4755;;;;
2024/01/23 13:23:07;;;;;;;4.3;2;;;;;;;7.06;70.61621;949.4472;;;;
2024/01/23 13:25:32;;;;;;;3;1.4;;;;;;;7.09;70.89355;949.5262;;;;
2024/01/23 13:27:57;;;;;;;36.9;17.5;;;;;;;6.99;72.24805;949.5257;;;;
2024/01/23 13:30:23;;;;;;;17.8;8.1;;;;;;;7.01;71.58301;949.5198;;;;
2024/01/23 13:32:53;;;;;;;6.2;3.6;;;;;;;7.16;70.00977;949.5092;;;;
2024/01/23 13:35:12;;;;;;;2.8;1.4;;;;;;;7.25;69.46875;949.5464;;;;
2024/01/23 13:37:38;;;;;;;1.4;1;;;;;;;7.21;69.38379;949.5464;;;;
2024/01/23 13:40:03;;;;;;;2.2;1.3;;;;;;;7.09;69.78418;949.5573;;;;
2024/01/23 13:42:28;;;;;;;4.7;2.1;;;;;;;7.08;71.08496;949.4919;;;;
2024/01/23 13:44:53;;;;;;;3.5;2.4;;;;;;;7.08;69.64453;949.5874;;;;
2024/01/23 13:47:18;;;;;;;3;1.6;;;;;;;7.13;68.94043;949.6024;;;;
2024/01/23 13:49:45;;;;;;;3.9;1.7;;;;;;;7.31;67.28027;949.6281;;;;
2024/01/23 13:52:08;;;;;;;2.1;1.5;;;;;;;7.29;66.71094;949.7302;;;;
2024/01/23 13:54:33;;;;;;;2.6;1.7;;;;;;;7.4;66.49023;949.6608;;;;
2024/01/23 13:56:59;;;;;;;3;1.5;;;;;;;7.45;66.46484;949.6785;;;;
2024/01/23 13:59:24;;;;;;;5.5;1.9;;;;;;;7.43;66.93652;949.6179;;;;
2024/01/23 14:01:49;;;;;;;3.5;1.9;;;;;;;7.5;65.93848;949.5359;;;;
2024/01/23 14:04:14;;;;;;;4.4;2;;;;;;;7.51;65.45215;949.4707;;;;
2024/01/23 14:06:39;;;;;;;3.1;1.8;;;;;;;7.5;65.43945;949.4402;;;;
2024/01/23 14:09:07;;;;;;;4.5;2.5;;;;;;;7.6;65.58105;949.5129;;;;
2024/01/23 14:11:29;;;;;;;5.3;2.3;;;;;;;7.69;64.69727;949.5134;;;;
2024/01/23 14:13:54;;;;;;;3.8;1.9;;;;;;;7.77;62.93945;949.4966;;;;
2024/01/23 14:16:20;;;;;;;5.7;2.3;;;;;;;7.87;63.56738;949.5309;;;;
2024/01/23 14:18:44;;;;;;;4.3;2.3;;;;;;;7.82;64.47949;949.5206;;;;
2024/01/23 14:21:11;;;;;;;4.8;1.8;;;;;;;7.96;62.83105;949.6198;;;;
2024/01/23 14:23:35;;;;;;;56.4;22;;;;;;;7.74;66.59863;949.551;;;;
2024/01/23 14:26:00;;;;;;;81.5;30.1;;;;;;;7.57;69.29492;949.6995;;;;
2024/01/23 14:28:26;;;;;;;29.1;12.3;;;;;;;7.65;67.00586;949.5952;;;;
2024/01/23 14:30:51;;;;;;;10.6;4.7;;;;;;;7.54;67.78223;949.6613;;;;
2024/01/23 14:33:15;;;;;;;8.4;3.1;;;;;;;7.55;68.77051;949.6863;;;;
2024/01/23 14:35:40;;;;;;;4.6;2.2;;;;;;;7.5;67.70703;949.6848;;;;
2024/01/23 14:38:05;;;;;;;4.6;1.6;;;;;;;7.35;67.85254;949.6476;;;;
2024/01/23 14:40:31;;;;;;;4.2;2.2;;;;;;;7.33;69.19922;949.8024;;;;
2024/01/23 14:42:57;;;;;;;2.1;1.7;;;;;;;7.26;68.75684;949.7631;;;;
2024/01/23 14:45:21;;;;;;;4.5;1.8;;;;;;;7.33;68.73438;949.6305;;;;
2024/01/23 14:47:46;;;;;;;5.5;1.8;;;;;;;7.29;68.64941;949.9187;;;;
2024/01/23 14:50:11;;;;;;;3.9;1.9;;;;;;;7.29;69.09082;949.7177;;;;
2024/01/23 14:52:37;;;;;;;6.1;2.7;;;;;;;7.26;68.88086;949.7447;;;;
2024/01/23 14:55:01;;;;;;;7.3;2.8;;;;;;;7.18;70.0918;949.7952;;;;
2024/01/23 14:57:27;;;;;;;4.8;2;;;;;;;7.19;70.83105;949.943;;;;
2024/01/23 14:59:52;;;;;;;7.6;2.3;;;;;;;7.13;72.09863;949.8842;;;;
2024/01/23 15:02:17;;;;;;;8.6;3.9;;;;;;;7.02;72.9541;949.7079;;;;
2024/01/23 15:04:42;;;;;;;32.5;15.1;;;;;;;6.97;74.08887;949.8234;;;;
2024/01/23 15:07:07;;;;;;;13.5;7.1;;;;;;;6.93;74.18262;949.7497;;;;
2024/01/23 15:09:35;;;;;;;14.1;7.3;;;;;;;6.9;75.41406;949.7834;;;;
2024/01/23 15:11:57;;;;;;;18.5;9.9;;;;;;;6.79;76.68359;949.8029;;;;
2024/01/23 15:14:22;;;;;;;16.9;8.7;;;;;;;6.65;77.71191;949.7109;;;;
2024/01/23 15:16:47;;;;;;;11.1;5.9;;;;;;;6.55;78.88184;949.7847;;;;
2024/01/23 15:19:15;;;;;;;7.1;4;;;;;;;6.6;78.90234;949.7449;;;;
2024/01/23 15:21:40;;;;;;;4.7;2.5;;;;;;;6.55;79.18652;949.7238;;;;
2024/01/23 15:24:03;;;;;;;3.9;2.7;;;;;;;6.47;80.05371;949.8215;;;;
2024/01/23 15:26:28;;;;;;;7.2;3.5;;;;;;;6.35;80.49609;949.9164;;;;
2024/01/23 15:28:53;;;;;;;5.2;3.4;;;;;;;6.32;80.91895;949.9119;;;;
2024/01/23 15:31:19;;;;;;;6.3;3.5;;;;;;;6.26;81.11035;949.9124;;;;
2024/01/23 15:33:44;;;;;;;8.4;4.8;;;;;;;6.2;81.57422;949.9675;;;;
2024/01/23 15:36:09;;;;;;;11.1;6.1;;;;;;;6.16;81.82617;950.0705;;;;
2024/01/23 15:38:34;;;;;;;9.4;6.3;;;;;;;6.09;81.81543;950.0345;;;;
2024/01/23 15:40:59;;;;;;;10.8;6.6;;;;;;;6.06;81.88574;950.1459;;;;
2024/01/23 15:43:24;;;;;;;13.1;7;;;;;;;5.99;82.08691;950.2278;;;;
2024/01/23 15:45:49;;;;;;;9.7;6.3;;;;;;;5.9;82.20703;950.3038;;;;
2024/01/23 15:48:14;;;;;;;11.6;6;;;;;;;5.84;82.41113;950.2826;;;;